sensor_id;sensor_type;location;lat;lon;timestamp;P1;durP1;ratioP1;P2;durP2;ratioP2
17596;SDS011;8917;50.942;6.946;2023-02-21T00:02:14;24.63;;;17.47;;
17596;SDS011;8917;50.942;6.946;2023-02-21T00:04:58;27.77;;;18.30;;
17596;SDS011;8917;50.942;6.946;2023-02-21T00:07:44;27.83;;;18.17;;
17596;SDS011;8917;50.942;6.946;2023-02-21T00:10:29;26.20;;;16.97;;
17596;SDS011;8917;50.942;6.946;2023-02-21T00:13:13;27.10;;;17.93;;
17596;SDS011;8917;50.942;6.946;2023-02-21T00:15:58;25.10;;;18.13;;
17596;SDS011;8917;50.942;6.946;2023-02-21T00:18:43;28.50;;;18.53;;
17596;SDS011;8917;50.942;6.946;2023-02-21T00:21:28;27.27;;;18.07;;
17596;SDS011;8917;50.942;6.946;2023-02-21T00:24:15;25.93;;;18.37;;
17596;SDS011;8917;50.942;6.946;2023-02-21T00:27:00;27.83;;;17.57;;
17596;SDS011;8917;50.942;6.946;2023-02-21T00:29:45;27.53;;;17.77;;
17596;SDS011;8917;50.942;6.946;2023-02-21T00:32:30;31.60;;;19.77;;
17596;SDS011;8917;50.942;6.946;2023-02-21T00:35:15;29.67;;;19.13;;
17596;SDS011;8917;50.942;6.946;2023-02-21T00:37:59;26.23;;;18.40;;
17596;SDS011;8917;50.942;6.946;2023-02-21T00:40:46;28.17;;;19.00;;
17596;SDS011;8917;50.942;6.946;2023-02-21T00:43:31;24.33;;;17.57;;
17596;SDS011;8917;50.942;6.946;2023-02-21T00:46:16;24.53;;;17.73;;
17596;SDS011;8917;50.942;6.946;2023-02-21T00:49:01;28.93;;;19.00;;
17596;SDS011;8917;50.942;6.946;2023-02-21T00:51:46;25.07;;;16.40;;
17596;SDS011;8917;50.942;6.946;2023-02-21T00:54:31;26.37;;;18.23;;
17596;SDS011;8917;50.942;6.946;2023-02-21T00:57:17;28.13;;;17.83;;
17596;SDS011;8917;50.942;6.946;2023-02-21T01:00:02;27.80;;;18.90;;
17596;SDS011;8917;50.942;6.946;2023-02-21T01:02:47;28.37;;;18.90;;
17596;SDS011;8917;50.942;6.946;2023-02-21T01:05:32;28.40;;;19.77;;
17596;SDS011;8917;50.942;6.946;2023-02-21T01:08:16;27.20;;;18.70;;
17596;SDS011;8917;50.942;6.946;2023-02-21T01:11:01;27.50;;;19.07;;
17596;SDS011;8917;50.942;6.946;2023-02-21T01:13:47;26.70;;;18.07;;
17596;SDS011;8917;50.942;6.946;2023-02-21T01:16:32;29.93;;;18.97;;
17596;SDS011;8917;50.942;6.946;2023-02-21T01:19:16;25.07;;;18.30;;
17596;SDS011;8917;50.942;6.946;2023-02-21T01:22:01;28.40;;;18.20;;
17596;SDS011;8917;50.942;6.946;2023-02-21T01:24:47;28.70;;;18.20;;
17596;SDS011;8917;50.942;6.946;2023-02-21T01:27:32;28.33;;;19.63;;
17596;SDS011;8917;50.942;6.946;2023-02-21T01:30:18;25.07;;;18.17;;
17596;SDS011;8917;50.942;6.946;2023-02-21T01:33:03;27.27;;;18.77;;
17596;SDS011;8917;50.942;6.946;2023-02-21T01:35:47;25.93;;;18.83;;
17596;SDS011;8917;50.942;6.946;2023-02-21T01:38:32;26.90;;;18.63;;
17596;SDS011;8917;50.942;6.946;2023-02-21T01:41:17;24.10;;;18.57;;
17596;SDS011;8917;50.942;6.946;2023-02-21T01:44:03;29.03;;;18.33;;
17596;SDS011;8917;50.942;6.946;2023-02-21T01:46:50;26.30;;;18.37;;
17596;SDS011;8917;50.942;6.946;2023-02-21T01:49:35;27.93;;;18.63;;
17596;SDS011;8917;50.942;6.946;2023-02-21T01:52:21;26.57;;;18.00;;
17596;SDS011;8917;50.942;6.946;2023-02-21T01:55:06;25.60;;;17.83;;
17596;SDS011;8917;50.942;6.946;2023-02-21T01:57:51;25.20;;;18.53;;
17596;SDS011;8917;50.942;6.946;2023-02-21T02:00:36;27.30;;;19.20;;
17596;SDS011;8917;50.942;6.946;2023-02-21T02:03:23;27.30;;;19.03;;
17596;SDS011;8917;50.942;6.946;2023-02-21T02:06:08;28.87;;;20.37;;
17596;SDS011;8917;50.942;6.946;2023-02-21T02:08:54;29.50;;;20.03;;
17596;SDS011;8917;50.942;6.946;2023-02-21T02:11:45;30.47;;;19.93;;
17596;SDS011;8917;50.942;6.946;2023-02-21T02:14:48;29.13;;;20.80;;
17596;SDS011;8917;50.942;6.946;2023-02-21T02:17:19;28.57;;;20.20;;
17596;SDS011;8917;50.942;6.946;2023-02-21T02:20:14;31.63;;;21.13;;
17596;SDS011;8917;50.942;6.946;2023-02-21T02:22:52;27.97;;;19.77;;
17596;SDS011;8917;50.942;6.946;2023-02-21T02:25:24;26.77;;;19.93;;
17596;SDS011;8917;50.942;6.946;2023-02-21T02:28:02;27.93;;;20.23;;
17596;SDS011;8917;50.942;6.946;2023-02-21T02:33:32;28.03;;;20.13;;
17596;SDS011;8917;50.942;6.946;2023-02-21T02:36:06;28.40;;;19.53;;
17596;SDS011;8917;50.942;6.946;2023-02-21T02:38:36;27.47;;;20.33;;
17596;SDS011;8917;50.942;6.946;2023-02-21T02:41:05;29.73;;;19.13;;
17596;SDS011;8917;50.942;6.946;2023-02-21T02:43:37;30.77;;;20.30;;
17596;SDS011;8917;50.942;6.946;2023-02-21T02:46:08;30.70;;;19.87;;
17596;SDS011;8917;50.942;6.946;2023-02-21T02:48:37;30.13;;;19.57;;
17596;SDS011;8917;50.942;6.946;2023-02-21T02:51:09;30.93;;;20.77;;
17596;SDS011;8917;50.942;6.946;2023-02-21T02:53:37;35.20;;;20.97;;
17596;SDS011;8917;50.942;6.946;2023-02-21T02:56:05;35.60;;;21.67;;
17596;SDS011;8917;50.942;6.946;2023-02-21T02:58:35;32.77;;;22.07;;
17596;SDS011;8917;50.942;6.946;2023-02-21T03:01:06;33.47;;;21.07;;
17596;SDS011;8917;50.942;6.946;2023-02-21T03:03:45;33.37;;;20.93;;
17596;SDS011;8917;50.942;6.946;2023-02-21T03:06:21;32.33;;;21.37;;
17596;SDS011;8917;50.942;6.946;2023-02-21T03:08:50;33.90;;;20.67;;
17596;SDS011;8917;50.942;6.946;2023-02-21T03:11:20;35.07;;;20.50;;
17596;SDS011;8917;50.942;6.946;2023-02-21T03:13:50;31.50;;;20.43;;
17596;SDS011;8917;50.942;6.946;2023-02-21T03:16:22;32.20;;;21.13;;
17596;SDS011;8917;50.942;6.946;2023-02-21T03:18:49;34.67;;;22.23;;
17596;SDS011;8917;50.942;6.946;2023-02-21T03:21:19;34.67;;;21.00;;
17596;SDS011;8917;50.942;6.946;2023-02-21T03:23:48;31.20;;;21.13;;
17596;SDS011;8917;50.942;6.946;2023-02-21T03:26:16;34.60;;;22.30;;
17596;SDS011;8917;50.942;6.946;2023-02-21T03:28:43;30.63;;;20.50;;
17596;SDS011;8917;50.942;6.946;2023-02-21T03:31:12;32.53;;;20.03;;
17596;SDS011;8917;50.942;6.946;2023-02-21T03:33:41;32.97;;;20.53;;
17596;SDS011;8917;50.942;6.946;2023-02-21T03:36:08;31.73;;;19.27;;
17596;SDS011;8917;50.942;6.946;2023-02-21T03:38:37;33.13;;;20.27;;
17596;SDS011;8917;50.942;6.946;2023-02-21T03:41:05;30.20;;;19.50;;
17596;SDS011;8917;50.942;6.946;2023-02-21T03:43:32;32.40;;;20.47;;
17596;SDS011;8917;50.942;6.946;2023-02-21T03:46:00;28.57;;;19.37;;
17596;SDS011;8917;50.942;6.946;2023-02-21T03:48:27;26.43;;;17.87;;
17596;SDS011;8917;50.942;6.946;2023-02-21T03:50:54;31.13;;;18.60;;
17596;SDS011;8917;50.942;6.946;2023-02-21T03:53:21;34.20;;;19.33;;
17596;SDS011;8917;50.942;6.946;2023-02-21T03:55:50;33.00;;;19.80;;
17596;SDS011;8917;50.942;6.946;2023-02-21T03:58:17;29.23;;;18.30;;
17596;SDS011;8917;50.942;6.946;2023-02-21T04:00:44;31.97;;;19.37;;
17596;SDS011;8917;50.942;6.946;2023-02-21T04:03:11;28.93;;;18.77;;
17596;SDS011;8917;50.942;6.946;2023-02-21T04:05:38;32.03;;;19.10;;
17596;SDS011;8917;50.942;6.946;2023-02-21T04:08:05;33.03;;;19.37;;
17596;SDS011;8917;50.942;6.946;2023-02-21T04:10:33;30.53;;;19.10;;
17596;SDS011;8917;50.942;6.946;2023-02-21T04:13:01;28.77;;;18.87;;
17596;SDS011;8917;50.942;6.946;2023-02-21T04:15:28;29.83;;;19.10;;
17596;SDS011;8917;50.942;6.946;2023-02-21T04:17:55;30.13;;;20.37;;
17596;SDS011;8917;50.942;6.946;2023-02-21T04:20:22;34.47;;;20.80;;
17596;SDS011;8917;50.942;6.946;2023-02-21T04:22:50;30.17;;;19.47;;
17596;SDS011;8917;50.942;6.946;2023-02-21T04:25:17;34.77;;;19.50;;
17596;SDS011;8917;50.942;6.946;2023-02-21T04:27:44;30.67;;;19.73;;
17596;SDS011;8917;50.942;6.946;2023-02-21T04:30:13;30.20;;;19.60;;
17596;SDS011;8917;50.942;6.946;2023-02-21T04:32:40;32.23;;;19.53;;
17596;SDS011;8917;50.942;6.946;2023-02-21T04:35:07;31.80;;;19.77;;
17596;SDS011;8917;50.942;6.946;2023-02-21T04:37:34;30.30;;;20.20;;
17596;SDS011;8917;50.942;6.946;2023-02-21T04:40:02;34.97;;;19.93;;
17596;SDS011;8917;50.942;6.946;2023-02-21T04:42:29;30.37;;;19.20;;
17596;SDS011;8917;50.942;6.946;2023-02-21T04:44:56;32.07;;;19.40;;
17596;SDS011;8917;50.942;6.946;2023-02-21T04:47:25;33.10;;;21.27;;
17596;SDS011;8917;50.942;6.946;2023-02-21T04:49:52;31.97;;;20.33;;
17596;SDS011;8917;50.942;6.946;2023-02-21T04:52:19;30.00;;;19.23;;
17596;SDS011;8917;50.942;6.946;2023-02-21T04:54:46;31.07;;;20.43;;
17596;SDS011;8917;50.942;6.946;2023-02-21T04:57:14;33.73;;;20.27;;
17596;SDS011;8917;50.942;6.946;2023-02-21T04:59:41;30.77;;;20.53;;
17596;SDS011;8917;50.942;6.946;2023-02-21T05:02:08;32.70;;;18.30;;
17596;SDS011;8917;50.942;6.946;2023-02-21T05:04:37;34.67;;;19.63;;
17596;SDS011;8917;50.942;6.946;2023-02-21T05:07:06;31.27;;;18.70;;
17596;SDS011;8917;50.942;6.946;2023-02-21T05:09:33;29.63;;;19.53;;
17596;SDS011;8917;50.942;6.946;2023-02-21T05:12:01;29.07;;;19.20;;
17596;SDS011;8917;50.942;6.946;2023-02-21T05:14:35;28.80;;;18.43;;
17596;SDS011;8917;50.942;6.946;2023-02-21T05:17:02;27.70;;;18.50;;
17596;SDS011;8917;50.942;6.946;2023-02-21T05:19:29;30.47;;;19.03;;
17596;SDS011;8917;50.942;6.946;2023-02-21T05:21:59;30.20;;;18.33;;
17596;SDS011;8917;50.942;6.946;2023-02-21T05:24:28;28.03;;;19.03;;
17596;SDS011;8917;50.942;6.946;2023-02-21T05:26:55;26.37;;;18.13;;
17596;SDS011;8917;50.942;6.946;2023-02-21T05:29:23;28.60;;;18.33;;
17596;SDS011;8917;50.942;6.946;2023-02-21T05:31:52;29.27;;;18.27;;
17596;SDS011;8917;50.942;6.946;2023-02-21T05:34:19;25.17;;;17.90;;
17596;SDS011;8917;50.942;6.946;2023-02-21T05:36:46;27.03;;;17.77;;
17596;SDS011;8917;50.942;6.946;2023-02-21T05:39:15;26.00;;;16.93;;
17596;SDS011;8917;50.942;6.946;2023-02-21T05:41:46;30.03;;;18.10;;
17596;SDS011;8917;50.942;6.946;2023-02-21T05:44:13;25.13;;;17.00;;
17596;SDS011;8917;50.942;6.946;2023-02-21T05:46:40;26.63;;;17.60;;
17596;SDS011;8917;50.942;6.946;2023-02-21T05:49:08;25.27;;;16.00;;
17596;SDS011;8917;50.942;6.946;2023-02-21T05:51:36;24.13;;;16.40;;
17596;SDS011;8917;50.942;6.946;2023-02-21T05:54:03;27.23;;;17.33;;
17596;SDS011;8917;50.942;6.946;2023-02-21T05:56:37;27.20;;;17.07;;
17596;SDS011;8917;50.942;6.946;2023-02-21T05:59:04;25.77;;;16.87;;
17596;SDS011;8917;50.942;6.946;2023-02-21T06:01:32;27.67;;;17.90;;
17596;SDS011;8917;50.942;6.946;2023-02-21T06:04:00;25.03;;;17.00;;
17596;SDS011;8917;50.942;6.946;2023-02-21T06:06:27;27.40;;;17.77;;
17596;SDS011;8917;50.942;6.946;2023-02-21T06:08:54;27.10;;;16.87;;
17596;SDS011;8917;50.942;6.946;2023-02-21T06:11:22;25.40;;;17.07;;
17596;SDS011;8917;50.942;6.946;2023-02-21T06:13:51;27.33;;;17.57;;
17596;SDS011;8917;50.942;6.946;2023-02-21T06:16:18;26.10;;;17.00;;
17596;SDS011;8917;50.942;6.946;2023-02-21T06:18:48;26.43;;;16.63;;
17596;SDS011;8917;50.942;6.946;2023-02-21T06:21:15;26.17;;;17.23;;
17596;SDS011;8917;50.942;6.946;2023-02-21T06:23:43;28.23;;;16.83;;
17596;SDS011;8917;50.942;6.946;2023-02-21T06:26:10;25.33;;;17.37;;
17596;SDS011;8917;50.942;6.946;2023-02-21T06:28:37;25.80;;;17.60;;
17596;SDS011;8917;50.942;6.946;2023-02-21T06:31:06;28.70;;;18.47;;
17596;SDS011;8917;50.942;6.946;2023-02-21T06:33:33;30.73;;;18.63;;
17596;SDS011;8917;50.942;6.946;2023-02-21T06:36:02;29.83;;;18.97;;
17596;SDS011;8917;50.942;6.946;2023-02-21T06:38:30;29.90;;;18.83;;
17596;SDS011;8917;50.942;6.946;2023-02-21T06:40:57;28.30;;;18.20;;
17596;SDS011;8917;50.942;6.946;2023-02-21T06:43:25;35.20;;;19.80;;
17596;SDS011;8917;50.942;6.946;2023-02-21T06:45:52;29.10;;;18.40;;
17596;SDS011;8917;50.942;6.946;2023-02-21T06:48:21;31.17;;;18.90;;
17596;SDS011;8917;50.942;6.946;2023-02-21T06:50:49;29.90;;;18.53;;
17596;SDS011;8917;50.942;6.946;2023-02-21T06:53:16;36.27;;;20.77;;
17596;SDS011;8917;50.942;6.946;2023-02-21T06:55:43;32.93;;;19.17;;
17596;SDS011;8917;50.942;6.946;2023-02-21T06:58:10;31.33;;;20.00;;
17596;SDS011;8917;50.942;6.946;2023-02-21T07:00:39;35.20;;;22.07;;
17596;SDS011;8917;50.942;6.946;2023-02-21T07:03:07;35.00;;;20.00;;
17596;SDS011;8917;50.942;6.946;2023-02-21T07:05:35;39.23;;;21.43;;
17596;SDS011;8917;50.942;6.946;2023-02-21T07:08:03;35.67;;;20.77;;
17596;SDS011;8917;50.942;6.946;2023-02-21T07:10:30;34.10;;;21.07;;
17596;SDS011;8917;50.942;6.946;2023-02-21T07:12:58;30.40;;;20.37;;
17596;SDS011;8917;50.942;6.946;2023-02-21T07:15:25;46.60;;;29.07;;
17596;SDS011;8917;50.942;6.946;2023-02-21T07:17:52;33.20;;;21.30;;
17596;SDS011;8917;50.942;6.946;2023-02-21T07:20:19;34.80;;;21.63;;
17596;SDS011;8917;50.942;6.946;2023-02-21T07:22:48;35.87;;;21.37;;
17596;SDS011;8917;50.942;6.946;2023-02-21T07:25:16;35.37;;;20.97;;
17596;SDS011;8917;50.942;6.946;2023-02-21T07:27:45;33.70;;;21.13;;
17596;SDS011;8917;50.942;6.946;2023-02-21T07:30:13;37.17;;;20.80;;
17596;SDS011;8917;50.942;6.946;2023-02-21T07:32:40;35.77;;;21.73;;
17596;SDS011;8917;50.942;6.946;2023-02-21T07:35:07;34.37;;;19.83;;
17596;SDS011;8917;50.942;6.946;2023-02-21T07:37:35;35.77;;;20.70;;
17596;SDS011;8917;50.942;6.946;2023-02-21T07:40:03;35.70;;;20.57;;
17596;SDS011;8917;50.942;6.946;2023-02-21T07:42:32;38.77;;;21.20;;
17596;SDS011;8917;50.942;6.946;2023-02-21T07:44:59;34.93;;;20.17;;
17596;SDS011;8917;50.942;6.946;2023-02-21T07:47:26;34.83;;;19.70;;
17596;SDS011;8917;50.942;6.946;2023-02-21T07:49:53;41.13;;;21.67;;
17596;SDS011;8917;50.942;6.946;2023-02-21T07:52:21;40.83;;;20.97;;
17596;SDS011;8917;50.942;6.946;2023-02-21T07:54:48;39.80;;;21.67;;
17596;SDS011;8917;50.942;6.946;2023-02-21T07:57:17;40.33;;;20.73;;
17596;SDS011;8917;50.942;6.946;2023-02-21T07:59:44;38.93;;;22.53;;
17596;SDS011;8917;50.942;6.946;2023-02-21T08:02:11;36.50;;;20.97;;
17596;SDS011;8917;50.942;6.946;2023-02-21T08:04:38;36.33;;;21.37;;
17596;SDS011;8917;50.942;6.946;2023-02-21T08:07:06;36.47;;;21.57;;
17596;SDS011;8917;50.942;6.946;2023-02-21T08:09:33;38.63;;;21.33;;
17596;SDS011;8917;50.942;6.946;2023-02-21T08:12:01;40.77;;;22.53;;
17596;SDS011;8917;50.942;6.946;2023-02-21T08:14:30;37.73;;;22.17;;
17596;SDS011;8917;50.942;6.946;2023-02-21T08:16:57;40.50;;;23.80;;
17596;SDS011;8917;50.942;6.946;2023-02-21T08:19:25;38.77;;;23.27;;
17596;SDS011;8917;50.942;6.946;2023-02-21T08:21:52;42.97;;;25.73;;
17596;SDS011;8917;50.942;6.946;2023-02-21T08:24:19;41.73;;;23.60;;
17596;SDS011;8917;50.942;6.946;2023-02-21T08:26:46;42.63;;;25.23;;
17596;SDS011;8917;50.942;6.946;2023-02-21T08:29:14;41.33;;;23.43;;
17596;SDS011;8917;50.942;6.946;2023-02-21T08:31:43;39.03;;;23.47;;
17596;SDS011;8917;50.942;6.946;2023-02-21T08:34:10;37.93;;;23.27;;
17596;SDS011;8917;50.942;6.946;2023-02-21T08:36:38;42.10;;;24.97;;
17596;SDS011;8917;50.942;6.946;2023-02-21T08:39:06;50.93;;;27.03;;
17596;SDS011;8917;50.942;6.946;2023-02-21T08:41:34;42.73;;;24.87;;
17596;SDS011;8917;50.942;6.946;2023-02-21T08:44:02;43.17;;;25.60;;
17596;SDS011;8917;50.942;6.946;2023-02-21T08:46:29;45.80;;;26.37;;
17596;SDS011;8917;50.942;6.946;2023-02-21T08:48:58;45.27;;;26.37;;
17596;SDS011;8917;50.942;6.946;2023-02-21T08:51:25;37.37;;;22.80;;
17596;SDS011;8917;50.942;6.946;2023-02-21T08:53:53;37.20;;;23.43;;
17596;SDS011;8917;50.942;6.946;2023-02-21T08:56:20;33.87;;;19.53;;
17596;SDS011;8917;50.942;6.946;2023-02-21T08:58:48;36.53;;;19.70;;
17596;SDS011;8917;50.942;6.946;2023-02-21T09:01:18;33.97;;;20.43;;
17596;SDS011;8917;50.942;6.946;2023-02-21T09:03:45;41.90;;;23.03;;
17596;SDS011;8917;50.942;6.946;2023-02-21T09:06:14;44.17;;;23.37;;
17596;SDS011;8917;50.942;6.946;2023-02-21T09:08:41;44.87;;;24.73;;
17596;SDS011;8917;50.942;6.946;2023-02-21T09:11:08;46.20;;;26.17;;
17596;SDS011;8917;50.942;6.946;2023-02-21T09:13:35;34.17;;;20.83;;
17596;SDS011;8917;50.942;6.946;2023-02-21T09:16:03;36.83;;;20.53;;
17596;SDS011;8917;50.942;6.946;2023-02-21T09:18:30;33.63;;;20.57;;
17596;SDS011;8917;50.942;6.946;2023-02-21T09:20:58;32.97;;;20.30;;
17596;SDS011;8917;50.942;6.946;2023-02-21T09:23:27;33.33;;;19.93;;
17596;SDS011;8917;50.942;6.946;2023-02-21T09:25:55;33.13;;;20.07;;
17596;SDS011;8917;50.942;6.946;2023-02-21T09:28:22;31.70;;;19.33;;
17596;SDS011;8917;50.942;6.946;2023-02-21T09:30:49;36.80;;;20.47;;
17596;SDS011;8917;50.942;6.946;2023-02-21T09:33:17;29.77;;;18.97;;
17596;SDS011;8917;50.942;6.946;2023-02-21T09:35:44;31.77;;;19.27;;
17596;SDS011;8917;50.942;6.946;2023-02-21T09:38:11;34.90;;;21.03;;
17596;SDS011;8917;50.942;6.946;2023-02-21T09:40:41;30.53;;;18.37;;
17596;SDS011;8917;50.942;6.946;2023-02-21T09:43:11;30.53;;;20.53;;
17596;SDS011;8917;50.942;6.946;2023-02-21T09:45:40;39.40;;;20.90;;
17596;SDS011;8917;50.942;6.946;2023-02-21T09:48:10;34.97;;;21.20;;
17596;SDS011;8917;50.942;6.946;2023-02-21T09:50:39;31.03;;;20.23;;
17596;SDS011;8917;50.942;6.946;2023-02-21T09:53:07;35.30;;;20.60;;
17596;SDS011;8917;50.942;6.946;2023-02-21T09:55:35;33.73;;;20.93;;
17596;SDS011;8917;50.942;6.946;2023-02-21T09:58:07;34.90;;;20.10;;
17596;SDS011;8917;50.942;6.946;2023-02-21T10:00:36;39.13;;;21.47;;
17596;SDS011;8917;50.942;6.946;2023-02-21T10:03:08;35.00;;;21.27;;
17596;SDS011;8917;50.942;6.946;2023-02-21T10:05:41;43.87;;;22.30;;
17596;SDS011;8917;50.942;6.946;2023-02-21T10:08:10;31.33;;;20.20;;
17596;SDS011;8917;50.942;6.946;2023-02-21T10:10:41;34.47;;;19.43;;
17596;SDS011;8917;50.942;6.946;2023-02-21T10:13:14;34.97;;;19.67;;
17596;SDS011;8917;50.942;6.946;2023-02-21T10:15:44;36.73;;;21.53;;
17596;SDS011;8917;50.942;6.946;2023-02-21T10:18:18;39.50;;;22.83;;
17596;SDS011;8917;50.942;6.946;2023-02-21T10:20:48;35.80;;;19.97;;
17596;SDS011;8917;50.942;6.946;2023-02-21T10:23:17;33.33;;;20.60;;
17596;SDS011;8917;50.942;6.946;2023-02-21T10:25:45;30.30;;;19.73;;
17596;SDS011;8917;50.942;6.946;2023-02-21T10:28:18;35.67;;;19.70;;
17596;SDS011;8917;50.942;6.946;2023-02-21T10:30:45;40.63;;;25.23;;
17596;SDS011;8917;50.942;6.946;2023-02-21T10:33:13;34.87;;;21.47;;
17596;SDS011;8917;50.942;6.946;2023-02-21T10:35:41;39.37;;;21.87;;
17596;SDS011;8917;50.942;6.946;2023-02-21T10:38:08;37.97;;;23.20;;
17596;SDS011;8917;50.942;6.946;2023-02-21T10:40:37;42.17;;;24.70;;
17596;SDS011;8917;50.942;6.946;2023-02-21T10:43:08;39.67;;;25.57;;
17596;SDS011;8917;50.942;6.946;2023-02-21T10:45:39;42.30;;;25.13;;
17596;SDS011;8917;50.942;6.946;2023-02-21T10:48:06;41.17;;;26.00;;
17596;SDS011;8917;50.942;6.946;2023-02-21T10:50:36;42.53;;;26.00;;
17596;SDS011;8917;50.942;6.946;2023-02-21T10:53:04;44.07;;;26.93;;
17596;SDS011;8917;50.942;6.946;2023-02-21T10:55:32;66.27;;;42.53;;
17596;SDS011;8917;50.942;6.946;2023-02-21T10:58:04;50.60;;;29.67;;
17596;SDS011;8917;50.942;6.946;2023-02-21T11:00:33;47.33;;;30.37;;
17596;SDS011;8917;50.942;6.946;2023-02-21T11:03:03;47.80;;;29.70;;
17596;SDS011;8917;50.942;6.946;2023-02-21T11:05:31;50.87;;;29.20;;
17596;SDS011;8917;50.942;6.946;2023-02-21T11:08:01;48.50;;;29.30;;
17596;SDS011;8917;50.942;6.946;2023-02-21T11:10:30;49.90;;;29.00;;
17596;SDS011;8917;50.942;6.946;2023-02-21T11:13:03;48.10;;;29.23;;
17596;SDS011;8917;50.942;6.946;2023-02-21T11:15:30;49.53;;;28.73;;
17596;SDS011;8917;50.942;6.946;2023-02-21T11:18:03;47.90;;;26.77;;
17596;SDS011;8917;50.942;6.946;2023-02-21T11:20:30;45.53;;;27.67;;
17596;SDS011;8917;50.942;6.946;2023-02-21T11:22:58;50.87;;;30.40;;
17596;SDS011;8917;50.942;6.946;2023-02-21T11:25:25;46.43;;;30.13;;
17596;SDS011;8917;50.942;6.946;2023-02-21T11:28:06;49.77;;;31.17;;
17596;SDS011;8917;50.942;6.946;2023-02-21T11:30:45;55.83;;;33.60;;
17596;SDS011;8917;50.942;6.946;2023-02-21T11:33:18;54.37;;;33.90;;
17596;SDS011;8917;50.942;6.946;2023-02-21T11:35:46;55.00;;;32.27;;
17596;SDS011;8917;50.942;6.946;2023-02-21T11:38:31;51.80;;;33.63;;
17596;SDS011;8917;50.942;6.946;2023-02-21T11:41:00;51.13;;;31.30;;
17596;SDS011;8917;50.942;6.946;2023-02-21T11:43:27;53.20;;;32.37;;
17596;SDS011;8917;50.942;6.946;2023-02-21T11:46:04;52.03;;;32.47;;
17596;SDS011;8917;50.942;6.946;2023-02-21T11:48:33;53.73;;;34.07;;
17596;SDS011;8917;50.942;6.946;2023-02-21T11:51:04;50.40;;;32.77;;
17596;SDS011;8917;50.942;6.946;2023-02-21T11:53:35;53.73;;;33.77;;
17596;SDS011;8917;50.942;6.946;2023-02-21T11:56:06;52.33;;;32.53;;
17596;SDS011;8917;50.942;6.946;2023-02-21T11:58:38;52.37;;;32.17;;
17596;SDS011;8917;50.942;6.946;2023-02-21T12:01:08;58.47;;;34.13;;
17596;SDS011;8917;50.942;6.946;2023-02-21T12:03:43;51.37;;;31.53;;
17596;SDS011;8917;50.942;6.946;2023-02-21T12:06:15;55.53;;;34.13;;
17596;SDS011;8917;50.942;6.946;2023-02-21T12:08:46;54.90;;;31.57;;
17596;SDS011;8917;50.942;6.946;2023-02-21T12:11:20;50.27;;;31.07;;
17596;SDS011;8917;50.942;6.946;2023-02-21T12:13:52;54.83;;;31.00;;
17596;SDS011;8917;50.942;6.946;2023-02-21T12:16:26;50.93;;;31.67;;
17596;SDS011;8917;50.942;6.946;2023-02-21T12:19:01;56.63;;;33.20;;
17596;SDS011;8917;50.942;6.946;2023-02-21T12:21:34;51.80;;;31.37;;
17596;SDS011;8917;50.942;6.946;2023-02-21T12:24:07;52.43;;;31.47;;
17596;SDS011;8917;50.942;6.946;2023-02-21T12:26:43;55.13;;;32.50;;
17596;SDS011;8917;50.942;6.946;2023-02-21T12:29:15;55.27;;;33.30;;
17596;SDS011;8917;50.942;6.946;2023-02-21T12:31:49;57.07;;;31.50;;
17596;SDS011;8917;50.942;6.946;2023-02-21T12:34:22;56.17;;;32.07;;
17596;SDS011;8917;50.942;6.946;2023-02-21T12:37:03;54.17;;;32.43;;
17596;SDS011;8917;50.942;6.946;2023-02-21T12:39:42;48.17;;;30.63;;
17596;SDS011;8917;50.942;6.946;2023-02-21T12:42:17;49.50;;;31.30;;
17596;SDS011;8917;50.942;6.946;2023-02-21T12:44:49;51.13;;;31.37;;
17596;SDS011;8917;50.942;6.946;2023-02-21T12:47:21;50.43;;;30.60;;
17596;SDS011;8917;50.942;6.946;2023-02-21T12:49:53;48.63;;;30.40;;
17596;SDS011;8917;50.942;6.946;2023-02-21T12:52:22;46.50;;;30.07;;
17596;SDS011;8917;50.942;6.946;2023-02-21T12:54:53;49.00;;;29.70;;
17596;SDS011;8917;50.942;6.946;2023-02-21T12:57:22;46.77;;;28.40;;
17596;SDS011;8917;50.942;6.946;2023-02-21T12:59:54;47.27;;;28.33;;
17596;SDS011;8917;50.942;6.946;2023-02-21T13:02:33;49.40;;;29.93;;
17596;SDS011;8917;50.942;6.946;2023-02-21T13:05:06;44.17;;;26.77;;
17596;SDS011;8917;50.942;6.946;2023-02-21T13:07:39;43.60;;;27.27;;
17596;SDS011;8917;50.942;6.946;2023-02-21T13:10:12;48.27;;;27.57;;
17596;SDS011;8917;50.942;6.946;2023-02-21T13:12:42;47.33;;;28.30;;
17596;SDS011;8917;50.942;6.946;2023-02-21T13:15:15;49.03;;;28.77;;
17596;SDS011;8917;50.942;6.946;2023-02-21T13:17:47;48.83;;;29.37;;
17596;SDS011;8917;50.942;6.946;2023-02-21T13:20:17;45.10;;;28.03;;
17596;SDS011;8917;50.942;6.946;2023-02-21T13:22:46;44.07;;;27.37;;
17596;SDS011;8917;50.942;6.946;2023-02-21T13:25:17;48.37;;;29.20;;
17596;SDS011;8917;50.942;6.946;2023-02-21T13:27:52;45.20;;;28.63;;
17596;SDS011;8917;50.942;6.946;2023-02-21T13:30:21;51.23;;;29.57;;
17596;SDS011;8917;50.942;6.946;2023-02-21T13:32:50;46.23;;;28.10;;
17596;SDS011;8917;50.942;6.946;2023-02-21T13:35:21;47.17;;;27.60;;
17596;SDS011;8917;50.942;6.946;2023-02-21T13:37:51;49.93;;;29.43;;
17596;SDS011;8917;50.942;6.946;2023-02-21T13:40:19;46.67;;;28.27;;
17596;SDS011;8917;50.942;6.946;2023-02-21T13:42:48;44.90;;;27.33;;
17596;SDS011;8917;50.942;6.946;2023-02-21T13:45:25;46.03;;;28.27;;
17596;SDS011;8917;50.942;6.946;2023-02-21T13:53:15;47.07;;;28.57;;
17596;SDS011;8917;50.942;6.946;2023-02-21T14:01:15;43.33;;;28.40;;
17596;SDS011;8917;50.942;6.946;2023-02-21T14:03:42;50.07;;;28.80;;
17596;SDS011;8917;50.942;6.946;2023-02-21T14:08:58;53.90;;;27.93;;
17596;SDS011;8917;50.942;6.946;2023-02-21T14:11:27;47.73;;;29.03;;
17596;SDS011;8917;50.942;6.946;2023-02-21T14:13:56;49.13;;;30.10;;
17596;SDS011;8917;50.942;6.946;2023-02-21T14:16:25;53.50;;;29.47;;
17596;SDS011;8917;50.942;6.946;2023-02-21T14:18:55;44.20;;;28.60;;
17596;SDS011;8917;50.942;6.946;2023-02-21T14:21:24;47.57;;;31.27;;
17596;SDS011;8917;50.942;6.946;2023-02-21T14:23:54;49.60;;;30.17;;
17596;SDS011;8917;50.942;6.946;2023-02-21T14:26:36;49.40;;;29.43;;
17596;SDS011;8917;50.942;6.946;2023-02-21T14:31:51;48.00;;;29.00;;
17596;SDS011;8917;50.942;6.946;2023-02-21T14:34:21;48.67;;;30.17;;
17596;SDS011;8917;50.942;6.946;2023-02-21T14:36:49;48.53;;;28.93;;
17596;SDS011;8917;50.942;6.946;2023-02-21T14:39:17;49.93;;;30.07;;
17596;SDS011;8917;50.942;6.946;2023-02-21T14:42:01;48.10;;;30.10;;
17596;SDS011;8917;50.942;6.946;2023-02-21T14:44:34;54.83;;;34.37;;
17596;SDS011;8917;50.942;6.946;2023-02-21T14:47:22;53.60;;;30.20;;
17596;SDS011;8917;50.942;6.946;2023-02-21T14:50:07;51.20;;;30.27;;
17596;SDS011;8917;50.942;6.946;2023-02-21T14:53:01;49.77;;;30.07;;
17596;SDS011;8917;50.942;6.946;2023-02-21T14:55:36;51.43;;;30.37;;
17596;SDS011;8917;50.942;6.946;2023-02-21T14:58:30;46.93;;;29.63;;
17596;SDS011;8917;50.942;6.946;2023-02-21T15:01:01;53.67;;;30.73;;
17596;SDS011;8917;50.942;6.946;2023-02-21T15:03:32;50.27;;;29.43;;
17596;SDS011;8917;50.942;6.946;2023-02-21T15:06:03;55.07;;;30.83;;
17596;SDS011;8917;50.942;6.946;2023-02-21T15:08:38;52.67;;;30.63;;
17596;SDS011;8917;50.942;6.946;2023-02-21T15:11:12;53.83;;;32.10;;
17596;SDS011;8917;50.942;6.946;2023-02-21T15:13:43;56.47;;;30.87;;
17596;SDS011;8917;50.942;6.946;2023-02-21T15:16:12;53.27;;;29.73;;
17596;SDS011;8917;50.942;6.946;2023-02-21T15:18:40;48.80;;;29.17;;
17596;SDS011;8917;50.942;6.946;2023-02-21T15:21:14;49.70;;;30.33;;